sensor_id;sensor_type;location;lat;lon;timestamp;P1;durP1;ratioP1;P2;durP2;ratioP2
28335;SDS011;15592;53.656;7.276;2023-03-15T00:00:11;5.45;;;1.20;;
28335;SDS011;15592;53.656;7.276;2023-03-15T00:02:38;5.60;;;1.17;;
28335;SDS011;15592;53.656;7.276;2023-03-15T00:05:03;5.53;;;1.27;;
28335;SDS011;15592;53.656;7.276;2023-03-15T00:07:30;3.75;;;1.13;;
28335;SDS011;15592;53.656;7.276;2023-03-15T00:09:56;4.57;;;1.20;;
28335;SDS011;15592;53.656;7.276;2023-03-15T00:12:21;6.60;;;1.35;;
28335;SDS011;15592;53.656;7.276;2023-03-15T00:14:48;9.20;;;1.55;;
28335;SDS011;15592;53.656;7.276;2023-03-15T00:17:14;4.43;;;1.10;;
28335;SDS011;15592;53.656;7.276;2023-03-15T00:19:40;5.20;;;1.10;;
28335;SDS011;15592;53.656;7.276;2023-03-15T00:22:05;3.00;;;0.90;;
28335;SDS011;15592;53.656;7.276;2023-03-15T00:24:31;4.07;;;1.00;;
28335;SDS011;15592;53.656;7.276;2023-03-15T00:26:57;3.35;;;1.00;;
28335;SDS011;15592;53.656;7.276;2023-03-15T00:29:22;5.97;;;1.20;;
28335;SDS011;15592;53.656;7.276;2023-03-15T00:31:48;5.57;;;1.02;;
28335;SDS011;15592;53.656;7.276;2023-03-15T00:34:15;3.38;;;0.90;;
28335;SDS011;15592;53.656;7.276;2023-03-15T00:36:43;6.25;;;1.40;;
28335;SDS011;15592;53.656;7.276;2023-03-15T00:39:09;1.67;;;0.70;;
28335;SDS011;15592;53.656;7.276;2023-03-15T00:41:35;5.75;;;1.60;;
28335;SDS011;15592;53.656;7.276;2023-03-15T00:44:01;5.93;;;1.25;;
28335;SDS011;15592;53.656;7.276;2023-03-15T00:46:28;7.50;;;1.13;;
28335;SDS011;15592;53.656;7.276;2023-03-15T00:48:53;9.98;;;1.20;;
28335;SDS011;15592;53.656;7.276;2023-03-15T00:51:20;10.05;;;1.17;;
28335;SDS011;15592;53.656;7.276;2023-03-15T00:53:47;4.70;;;1.10;;
28335;SDS011;15592;53.656;7.276;2023-03-15T00:56:15;8.05;;;1.10;;
28335;SDS011;15592;53.656;7.276;2023-03-15T00:58:43;6.63;;;1.00;;
28335;SDS011;15592;53.656;7.276;2023-03-15T01:01:18;8.93;;;1.40;;
28335;SDS011;15592;53.656;7.276;2023-03-15T01:03:49;5.53;;;1.00;;
28335;SDS011;15592;53.656;7.276;2023-03-15T01:06:22;3.35;;;0.70;;
28335;SDS011;15592;53.656;7.276;2023-03-15T01:08:49;7.10;;;0.82;;
28335;SDS011;15592;53.656;7.276;2023-03-15T01:11:20;4.45;;;1.10;;
28335;SDS011;15592;53.656;7.276;2023-03-15T01:13:48;10.52;;;1.33;;
28335;SDS011;15592;53.656;7.276;2023-03-15T01:16:15;11.95;;;2.20;;
28335;SDS011;15592;53.656;7.276;2023-03-15T01:18:41;4.43;;;1.33;;
28335;SDS011;15592;53.656;7.276;2023-03-15T01:21:07;4.88;;;1.50;;
28335;SDS011;15592;53.656;7.276;2023-03-15T01:23:34;12.43;;;1.77;;
28335;SDS011;15592;53.656;7.276;2023-03-15T01:26:01;6.40;;;1.70;;
28335;SDS011;15592;53.656;7.276;2023-03-15T01:28:28;12.57;;;1.85;;
28335;SDS011;15592;53.656;7.276;2023-03-15T01:30:53;10.52;;;1.83;;
28335;SDS011;15592;53.656;7.276;2023-03-15T01:33:19;11.82;;;1.40;;
28335;SDS011;15592;53.656;7.276;2023-03-15T01:35:45;11.90;;;1.95;;
28335;SDS011;15592;53.656;7.276;2023-03-15T01:38:11;9.25;;;1.45;;
28335;SDS011;15592;53.656;7.276;2023-03-15T01:40:44;11.13;;;1.85;;
28335;SDS011;15592;53.656;7.276;2023-03-15T01:43:12;7.47;;;1.65;;
28335;SDS011;15592;53.656;7.276;2023-03-15T01:48:18;10.32;;;1.73;;
28335;SDS011;15592;53.656;7.276;2023-03-15T01:50:46;10.38;;;1.70;;
28335;SDS011;15592;53.656;7.276;2023-03-15T01:53:13;8.93;;;1.40;;
28335;SDS011;15592;53.656;7.276;2023-03-15T01:55:39;7.82;;;1.30;;
28335;SDS011;15592;53.656;7.276;2023-03-15T01:58:05;4.25;;;1.13;;
28335;SDS011;15592;53.656;7.276;2023-03-15T02:00:32;2.20;;;0.90;;
28335;SDS011;15592;53.656;7.276;2023-03-15T02:05:27;7.30;;;1.10;;
28335;SDS011;15592;53.656;7.276;2023-03-15T02:07:57;6.28;;;1.27;;
28335;SDS011;15592;53.656;7.276;2023-03-15T02:10:30;8.60;;;1.58;;
28335;SDS011;15592;53.656;7.276;2023-03-15T02:13:00;2.53;;;1.08;;
28335;SDS011;15592;53.656;7.276;2023-03-15T02:15:27;5.40;;;1.27;;
28335;SDS011;15592;53.656;7.276;2023-03-15T02:17:53;5.32;;;1.02;;
28335;SDS011;15592;53.656;7.276;2023-03-15T02:20:43;10.18;;;1.80;;
28335;SDS011;15592;53.656;7.276;2023-03-15T02:23:31;8.00;;;1.38;;
28335;SDS011;15592;53.656;7.276;2023-03-15T02:28:22;9.30;;;1.27;;
28335;SDS011;15592;53.656;7.276;2023-03-15T02:30:48;8.40;;;1.35;;
28335;SDS011;15592;53.656;7.276;2023-03-15T02:33:31;4.28;;;1.42;;
28335;SDS011;15592;53.656;7.276;2023-03-15T02:36:20;6.28;;;1.35;;
28335;SDS011;15592;53.656;7.276;2023-03-15T02:38:48;6.32;;;1.30;;
28335;SDS011;15592;53.656;7.276;2023-03-15T02:41:17;4.70;;;1.08;;
28335;SDS011;15592;53.656;7.276;2023-03-15T02:43:49;4.97;;;0.90;;
28335;SDS011;15592;53.656;7.276;2023-03-15T02:46:17;2.90;;;0.95;;
28335;SDS011;15592;53.656;7.276;2023-03-15T02:48:43;9.05;;;2.10;;
28335;SDS011;15592;53.656;7.276;2023-03-15T02:51:21;18.30;;;2.97;;
28335;SDS011;15592;53.656;7.276;2023-03-15T02:53:48;14.80;;;2.55;;
28335;SDS011;15592;53.656;7.276;2023-03-15T02:56:14;13.02;;;2.63;;
28335;SDS011;15592;53.656;7.276;2023-03-15T02:58:41;26.20;;;3.60;;
28335;SDS011;15592;53.656;7.276;2023-03-15T03:01:09;21.58;;;2.92;;
28335;SDS011;15592;53.656;7.276;2023-03-15T03:03:39;22.77;;;3.25;;
28335;SDS011;15592;53.656;7.276;2023-03-15T03:06:06;20.42;;;2.97;;
28335;SDS011;15592;53.656;7.276;2023-03-15T03:08:32;18.98;;;3.45;;
28335;SDS011;15592;53.656;7.276;2023-03-15T03:10:58;25.70;;;3.38;;
28335;SDS011;15592;53.656;7.276;2023-03-15T03:13:23;12.55;;;2.70;;
28335;SDS011;15592;53.656;7.276;2023-03-15T03:15:49;23.95;;;3.40;;
28335;SDS011;15592;53.656;7.276;2023-03-15T03:18:22;18.55;;;3.45;;
28335;SDS011;15592;53.656;7.276;2023-03-15T03:20:55;19.77;;;3.15;;
28335;SDS011;15592;53.656;7.276;2023-03-15T03:25:50;14.40;;;2.30;;
28335;SDS011;15592;53.656;7.276;2023-03-15T03:30:46;11.55;;;1.63;;
28335;SDS011;15592;53.656;7.276;2023-03-15T03:33:11;14.27;;;2.13;;
28335;SDS011;15592;53.656;7.276;2023-03-15T03:35:37;16.30;;;2.50;;
28335;SDS011;15592;53.656;7.276;2023-03-15T03:38:02;12.32;;;2.13;;
28335;SDS011;15592;53.656;7.276;2023-03-15T03:40:28;11.45;;;2.10;;
28335;SDS011;15592;53.656;7.276;2023-03-15T03:42:53;12.00;;;1.70;;
28335;SDS011;15592;53.656;7.276;2023-03-15T03:45:19;10.25;;;1.83;;
28335;SDS011;15592;53.656;7.276;2023-03-15T03:47:45;6.68;;;1.55;;
28335;SDS011;15592;53.656;7.276;2023-03-15T03:50:10;10.27;;;1.73;;
28335;SDS011;15592;53.656;7.276;2023-03-15T03:52:36;9.90;;;1.80;;
28335;SDS011;15592;53.656;7.276;2023-03-15T03:55:02;13.27;;;1.80;;
28335;SDS011;15592;53.656;7.276;2023-03-15T03:57:27;13.68;;;1.90;;
28335;SDS011;15592;53.656;7.276;2023-03-15T03:59:53;10.05;;;1.70;;
28335;SDS011;15592;53.656;7.276;2023-03-15T04:02:19;10.00;;;1.60;;
28335;SDS011;15592;53.656;7.276;2023-03-15T04:04:45;7.80;;;1.60;;
28335;SDS011;15592;53.656;7.276;2023-03-15T04:07:14;6.00;;;1.40;;
28335;SDS011;15592;53.656;7.276;2023-03-15T04:09:40;4.40;;;1.05;;
28335;SDS011;15592;53.656;7.276;2023-03-15T04:12:05;4.97;;;1.02;;
28335;SDS011;15592;53.656;7.276;2023-03-15T04:14:31;2.85;;;1.15;;
28335;SDS011;15592;53.656;7.276;2023-03-15T04:16:57;2.58;;;0.65;;
28335;SDS011;15592;53.656;7.276;2023-03-15T04:19:23;2.38;;;1.00;;
28335;SDS011;15592;53.656;7.276;2023-03-15T04:21:48;2.40;;;0.88;;
28335;SDS011;15592;53.656;7.276;2023-03-15T04:24:16;2.47;;;1.05;;
28335;SDS011;15592;53.656;7.276;2023-03-15T04:26:41;1.50;;;0.60;;
28335;SDS011;15592;53.656;7.276;2023-03-15T04:29:07;1.58;;;0.50;;
28335;SDS011;15592;53.656;7.276;2023-03-15T04:31:35;2.03;;;0.82;;
28335;SDS011;15592;53.656;7.276;2023-03-15T04:34:01;2.92;;;0.60;;
28335;SDS011;15592;53.656;7.276;2023-03-15T04:36:28;1.42;;;0.60;;
28335;SDS011;15592;53.656;7.276;2023-03-15T04:38:54;1.63;;;0.75;;
28335;SDS011;15592;53.656;7.276;2023-03-15T04:41:27;2.22;;;0.95;;
28335;SDS011;15592;53.656;7.276;2023-03-15T04:43:52;3.28;;;0.63;;
28335;SDS011;15592;53.656;7.276;2023-03-15T04:46:18;1.10;;;0.57;;
28335;SDS011;15592;53.656;7.276;2023-03-15T04:48:44;2.40;;;0.70;;
28335;SDS011;15592;53.656;7.276;2023-03-15T04:51:09;1.85;;;0.70;;
28335;SDS011;15592;53.656;7.276;2023-03-15T04:53:35;1.08;;;0.50;;
28335;SDS011;15592;53.656;7.276;2023-03-15T04:56:02;2.75;;;0.90;;
28335;SDS011;15592;53.656;7.276;2023-03-15T04:58:28;2.45;;;0.80;;
28335;SDS011;15592;53.656;7.276;2023-03-15T05:00:53;2.33;;;0.50;;
28335;SDS011;15592;53.656;7.276;2023-03-15T05:03:19;0.60;;;0.55;;
28335;SDS011;15592;53.656;7.276;2023-03-15T05:05:45;2.40;;;0.70;;
28335;SDS011;15592;53.656;7.276;2023-03-15T05:08:10;0.93;;;0.45;;
28335;SDS011;15592;53.656;7.276;2023-03-15T05:10:36;1.00;;;0.60;;
28335;SDS011;15592;53.656;7.276;2023-03-15T05:13:02;5.05;;;0.82;;
28335;SDS011;15592;53.656;7.276;2023-03-15T05:15:27;4.63;;;1.23;;
28335;SDS011;15592;53.656;7.276;2023-03-15T05:17:53;8.55;;;1.35;;
28335;SDS011;15592;53.656;7.276;2023-03-15T05:20:20;7.43;;;1.77;;
28335;SDS011;15592;53.656;7.276;2023-03-15T05:22:46;7.03;;;1.35;;
28335;SDS011;15592;53.656;7.276;2023-03-15T05:25:12;8.05;;;1.65;;
28335;SDS011;15592;53.656;7.276;2023-03-15T05:27:39;5.82;;;1.05;;
28335;SDS011;15592;53.656;7.276;2023-03-15T05:30:05;7.38;;;1.35;;
28335;SDS011;15592;53.656;7.276;2023-03-15T05:32:32;5.07;;;1.27;;
28335;SDS011;15592;53.656;7.276;2023-03-15T05:35:04;7.63;;;1.48;;
28335;SDS011;15592;53.656;7.276;2023-03-15T05:37:31;5.57;;;1.30;;
28335;SDS011;15592;53.656;7.276;2023-03-15T05:39:57;8.68;;;1.70;;
28335;SDS011;15592;53.656;7.276;2023-03-15T05:42:23;4.50;;;1.10;;
28335;SDS011;15592;53.656;7.276;2023-03-15T05:44:53;6.85;;;1.52;;
28335;SDS011;15592;53.656;7.276;2023-03-15T05:47:20;3.55;;;1.02;;
28335;SDS011;15592;53.656;7.276;2023-03-15T05:49:46;5.28;;;1.08;;
28335;SDS011;15592;53.656;7.276;2023-03-15T05:52:13;3.28;;;0.98;;
28335;SDS011;15592;53.656;7.276;2023-03-15T05:54:39;3.03;;;1.00;;
28335;SDS011;15592;53.656;7.276;2023-03-15T05:57:04;4.22;;;1.20;;
28335;SDS011;15592;53.656;7.276;2023-03-15T05:59:30;2.67;;;0.90;;
28335;SDS011;15592;53.656;7.276;2023-03-15T06:01:56;7.63;;;1.77;;
28335;SDS011;15592;53.656;7.276;2023-03-15T06:04:21;10.50;;;1.83;;
28335;SDS011;15592;53.656;7.276;2023-03-15T06:06:47;12.18;;;2.35;;
28335;SDS011;15592;53.656;7.276;2023-03-15T06:09:13;10.60;;;1.85;;
28335;SDS011;15592;53.656;7.276;2023-03-15T06:11:38;11.77;;;1.92;;
28335;SDS011;15592;53.656;7.276;2023-03-15T06:14:04;7.90;;;1.77;;
28335;SDS011;15592;53.656;7.276;2023-03-15T06:16:30;10.88;;;1.73;;
28335;SDS011;15592;53.656;7.276;2023-03-15T06:18:55;10.98;;;1.88;;
28335;SDS011;15592;53.656;7.276;2023-03-15T06:21:21;9.95;;;1.55;;
28335;SDS011;15592;53.656;7.276;2023-03-15T06:23:46;9.57;;;2.17;;
28335;SDS011;15592;53.656;7.276;2023-03-15T06:26:12;16.27;;;2.65;;
28335;SDS011;15592;53.656;7.276;2023-03-15T06:28:39;12.15;;;2.15;;
28335;SDS011;15592;53.656;7.276;2023-03-15T06:31:08;14.75;;;2.17;;
28335;SDS011;15592;53.656;7.276;2023-03-15T06:33:35;9.43;;;2.15;;
28335;SDS011;15592;53.656;7.276;2023-03-15T06:36:02;11.63;;;1.70;;
28335;SDS011;15592;53.656;7.276;2023-03-15T06:38:27;10.45;;;1.70;;
28335;SDS011;15592;53.656;7.276;2023-03-15T06:40:55;13.90;;;2.17;;
28335;SDS011;15592;53.656;7.276;2023-03-15T06:43:22;6.50;;;1.80;;
28335;SDS011;15592;53.656;7.276;2023-03-15T06:45:49;8.95;;;1.77;;
28335;SDS011;15592;53.656;7.276;2023-03-15T06:48:15;8.57;;;1.58;;
28335;SDS011;15592;53.656;7.276;2023-03-15T06:50:41;12.63;;;1.88;;
28335;SDS011;15592;53.656;7.276;2023-03-15T06:53:07;7.28;;;1.73;;
28335;SDS011;15592;53.656;7.276;2023-03-15T06:55:32;15.20;;;1.73;;
28335;SDS011;15592;53.656;7.276;2023-03-15T06:57:58;8.10;;;1.50;;
28335;SDS011;15592;53.656;7.276;2023-03-15T07:00:24;4.95;;;1.23;;
28335;SDS011;15592;53.656;7.276;2023-03-15T07:02:50;5.38;;;1.70;;
28335;SDS011;15592;53.656;7.276;2023-03-15T07:05:15;7.38;;;2.25;;
28335;SDS011;15592;53.656;7.276;2023-03-15T07:07:41;7.28;;;1.42;;
28335;SDS011;15592;53.656;7.276;2023-03-15T07:10:07;6.68;;;1.63;;
28335;SDS011;15592;53.656;7.276;2023-03-15T07:12:33;7.90;;;1.65;;
28335;SDS011;15592;53.656;7.276;2023-03-15T07:15:02;9.00;;;1.83;;
28335;SDS011;15592;53.656;7.276;2023-03-15T07:17:28;5.03;;;1.20;;
28335;SDS011;15592;53.656;7.276;2023-03-15T07:19:54;6.03;;;1.10;;
28335;SDS011;15592;53.656;7.276;2023-03-15T07:22:19;4.20;;;1.45;;
28335;SDS011;15592;53.656;7.276;2023-03-15T07:24:46;4.13;;;1.27;;
28335;SDS011;15592;53.656;7.276;2023-03-15T07:27:12;4.55;;;1.27;;
28335;SDS011;15592;53.656;7.276;2023-03-15T07:29:38;8.30;;;2.25;;
28335;SDS011;15592;53.656;7.276;2023-03-15T07:32:05;10.35;;;1.67;;
28335;SDS011;15592;53.656;7.276;2023-03-15T07:34:31;9.10;;;1.73;;
28335;SDS011;15592;53.656;7.276;2023-03-15T07:36:56;11.25;;;2.25;;
28335;SDS011;15592;53.656;7.276;2023-03-15T07:39:22;7.68;;;1.90;;
28335;SDS011;15592;53.656;7.276;2023-03-15T07:41:49;9.63;;;1.98;;
28335;SDS011;15592;53.656;7.276;2023-03-15T07:44:16;3.50;;;1.35;;
28335;SDS011;15592;53.656;7.276;2023-03-15T07:46:41;8.68;;;2.17;;
28335;SDS011;15592;53.656;7.276;2023-03-15T07:49:07;10.18;;;2.30;;
28335;SDS011;15592;53.656;7.276;2023-03-15T07:51:32;13.63;;;2.22;;
28335;SDS011;15592;53.656;7.276;2023-03-15T07:53:58;11.07;;;2.63;;
28335;SDS011;15592;53.656;7.276;2023-03-15T07:56:24;14.93;;;3.13;;
28335;SDS011;15592;53.656;7.276;2023-03-15T07:58:49;15.85;;;2.28;;
28335;SDS011;15592;53.656;7.276;2023-03-15T08:01:15;15.18;;;2.40;;
28335;SDS011;15592;53.656;7.276;2023-03-15T08:03:41;10.68;;;1.63;;
28335;SDS011;15592;53.656;7.276;2023-03-15T08:06:06;7.20;;;1.60;;
28335;SDS011;15592;53.656;7.276;2023-03-15T08:08:32;12.88;;;1.90;;
28335;SDS011;15592;53.656;7.276;2023-03-15T08:10:58;21.25;;;2.13;;
28335;SDS011;15592;53.656;7.276;2023-03-15T08:13:23;13.68;;;1.80;;
28335;SDS011;15592;53.656;7.276;2023-03-15T08:15:49;8.40;;;2.00;;
28335;SDS011;15592;53.656;7.276;2023-03-15T08:18:15;14.85;;;2.03;;
28335;SDS011;15592;53.656;7.276;2023-03-15T08:20:41;13.88;;;1.80;;
28335;SDS011;15592;53.656;7.276;2023-03-15T08:23:06;11.73;;;1.88;;
28335;SDS011;15592;53.656;7.276;2023-03-15T08:25:33;7.10;;;1.27;;
28335;SDS011;15592;53.656;7.276;2023-03-15T08:28:00;10.35;;;1.92;;
28335;SDS011;15592;53.656;7.276;2023-03-15T08:30:26;9.50;;;1.67;;
28335;SDS011;15592;53.656;7.276;2023-03-15T08:32:52;12.80;;;1.50;;
28335;SDS011;15592;53.656;7.276;2023-03-15T08:35:18;10.55;;;1.77;;
28335;SDS011;15592;53.656;7.276;2023-03-15T08:37:45;8.68;;;1.13;;
28335;SDS011;15592;53.656;7.276;2023-03-15T08:40:11;5.15;;;1.10;;
28335;SDS011;15592;53.656;7.276;2023-03-15T08:42:42;8.05;;;1.08;;
28335;SDS011;15592;53.656;7.276;2023-03-15T08:45:08;5.95;;;1.55;;
28335;SDS011;15592;53.656;7.276;2023-03-15T08:47:35;8.90;;;1.30;;
28335;SDS011;15592;53.656;7.276;2023-03-15T08:50:05;6.82;;;1.30;;
28335;SDS011;15592;53.656;7.276;2023-03-15T08:52:33;4.97;;;1.10;;
28335;SDS011;15592;53.656;7.276;2023-03-15T08:54:59;8.13;;;1.50;;
28335;SDS011;15592;53.656;7.276;2023-03-15T08:57:25;8.20;;;1.67;;
28335;SDS011;15592;53.656;7.276;2023-03-15T08:59:54;6.07;;;1.27;;
28335;SDS011;15592;53.656;7.276;2023-03-15T09:02:20;3.53;;;0.75;;
28335;SDS011;15592;53.656;7.276;2023-03-15T09:04:47;4.28;;;1.00;;
28335;SDS011;15592;53.656;7.276;2023-03-15T09:07:13;4.57;;;1.10;;
28335;SDS011;15592;53.656;7.276;2023-03-15T09:09:39;4.90;;;1.23;;
28335;SDS011;15592;53.656;7.276;2023-03-15T09:12:05;6.72;;;1.30;;
28335;SDS011;15592;53.656;7.276;2023-03-15T09:14:31;3.80;;;1.13;;
28335;SDS011;15592;53.656;7.276;2023-03-15T09:16:57;8.70;;;1.20;;
28335;SDS011;15592;53.656;7.276;2023-03-15T09:19:23;3.72;;;1.05;;
28335;SDS011;15592;53.656;7.276;2023-03-15T09:21:48;4.28;;;1.17;;
28335;SDS011;15592;53.656;7.276;2023-03-15T09:24:14;3.05;;;1.00;;
28335;SDS011;15592;53.656;7.276;2023-03-15T09:26:39;3.83;;;0.80;;
28335;SDS011;15592;53.656;7.276;2023-03-15T09:29:05;8.35;;;1.33;;
28335;SDS011;15592;53.656;7.276;2023-03-15T09:31:33;6.15;;;1.27;;
28335;SDS011;15592;53.656;7.276;2023-03-15T09:33:59;8.57;;;1.35;;
28335;SDS011;15592;53.656;7.276;2023-03-15T09:36:24;3.90;;;1.00;;
28335;SDS011;15592;53.656;7.276;2023-03-15T09:38:50;12.77;;;1.42;;
28335;SDS011;15592;53.656;7.276;2023-03-15T09:41:20;7.60;;;1.35;;
28335;SDS011;15592;53.656;7.276;2023-03-15T09:46:34;10.65;;;1.80;;
28335;SDS011;15592;53.656;7.276;2023-03-15T09:51:56;9.32;;;1.48;;
28335;SDS011;15592;53.656;7.276;2023-03-15T09:57:05;9.52;;;2.42;;
28335;SDS011;15592;53.656;7.276;2023-03-15T09:59:40;7.97;;;1.45;;
28335;SDS011;15592;53.656;7.276;2023-03-15T10:04:49;9.25;;;1.40;;
28335;SDS011;15592;53.656;7.276;2023-03-15T10:07:19;5.00;;;1.15;;
28335;SDS011;15592;53.656;7.276;2023-03-15T10:09:45;2.33;;;0.98;;
28335;SDS011;15592;53.656;7.276;2023-03-15T10:12:12;9.43;;;1.40;;
28335;SDS011;15592;53.656;7.276;2023-03-15T10:17:55;8.95;;;1.77;;
28335;SDS011;15592;53.656;7.276;2023-03-15T10:20:22;11.13;;;1.80;;
28335;SDS011;15592;53.656;7.276;2023-03-15T10:22:53;3.95;;;1.30;;
28335;SDS011;15592;53.656;7.276;2023-03-15T10:25:29;8.52;;;1.45;;
28335;SDS011;15592;53.656;7.276;2023-03-15T10:30:51;4.53;;;1.40;;
28335;SDS011;15592;53.656;7.276;2023-03-15T10:35:57;4.20;;;1.40;;
28335;SDS011;15592;53.656;7.276;2023-03-15T10:38:23;8.45;;;1.27;;
28335;SDS011;15592;53.656;7.276;2023-03-15T10:40:50;7.40;;;1.20;;
28335;SDS011;15592;53.656;7.276;2023-03-15T10:43:30;4.03;;;1.38;;
28335;SDS011;15592;53.656;7.276;2023-03-15T10:48:27;7.22;;;1.55;;
28335;SDS011;15592;53.656;7.276;2023-03-15T10:50:55;7.38;;;1.60;;
28335;SDS011;15592;53.656;7.276;2023-03-15T10:53:21;7.13;;;1.85;;
28335;SDS011;15592;53.656;7.276;2023-03-15T10:55:53;6.38;;;2.20;;
28335;SDS011;15592;53.656;7.276;2023-03-15T10:58:44;8.43;;;1.60;;
28335;SDS011;15592;53.656;7.276;2023-03-15T11:01:28;4.70;;;1.58;;
28335;SDS011;15592;53.656;7.276;2023-03-15T11:06:50;4.45;;;1.40;;
28335;SDS011;15592;53.656;7.276;2023-03-15T11:09:22;4.78;;;1.25;;
28335;SDS011;15592;53.656;7.276;2023-03-15T11:14:24;6.45;;;1.60;;
28335;SDS011;15592;53.656;7.276;2023-03-15T11:17:21;5.32;;;1.45;;
28335;SDS011;15592;53.656;7.276;2023-03-15T11:20:18;8.18;;;2.05;;
28335;SDS011;15592;53.656;7.276;2023-03-15T11:22:51;4.95;;;2.03;;
28335;SDS011;15592;53.656;7.276;2023-03-15T11:25:18;7.20;;;1.50;;
28335;SDS011;15592;53.656;7.276;2023-03-15T11:27:47;3.60;;;1.27;;
28335;SDS011;15592;53.656;7.276;2023-03-15T11:32:45;10.40;;;2.65;;
28335;SDS011;15592;53.656;7.276;2023-03-15T11:35:25;9.40;;;1.95;;
28335;SDS011;15592;53.656;7.276;2023-03-15T11:37:59;5.35;;;1.33;;
28335;SDS011;15592;53.656;7.276;2023-03-15T11:40:29;6.43;;;1.40;;
28335;SDS011;15592;53.656;7.276;2023-03-15T11:43:05;6.03;;;1.13;;
28335;SDS011;15592;53.656;7.276;2023-03-15T11:45:46;4.90;;;1.40;;
28335;SDS011;15592;53.656;7.276;2023-03-15T11:49:09;2.95;;;0.98;;
28335;SDS011;15592;53.656;7.276;2023-03-15T11:51:17;3.50;;;1.20;;
28335;SDS011;15592;53.656;7.276;2023-03-15T11:53:58;3.53;;;1.23;;
28335;SDS011;15592;53.656;7.276;2023-03-15T11:56:44;3.08;;;0.93;;
28335;SDS011;15592;53.656;7.276;2023-03-15T12:01:46;3.92;;;1.33;;
28335;SDS011;15592;53.656;7.276;2023-03-15T12:06:49;4.93;;;1.30;;
28335;SDS011;15592;53.656;7.276;2023-03-15T12:11:57;2.30;;;1.10;;
28335;SDS011;15592;53.656;7.276;2023-03-15T12:14:26;4.40;;;1.40;;
28335;SDS011;15592;53.656;7.276;2023-03-15T12:19:56;2.83;;;1.20;;
28335;SDS011;15592;53.656;7.276;2023-03-15T12:22:26;5.38;;;1.10;;
28335;SDS011;15592;53.656;7.276;2023-03-15T12:24:57;3.22;;;1.13;;
28335;SDS011;15592;53.656;7.276;2023-03-15T12:27:32;4.95;;;1.60;;
28335;SDS011;15592;53.656;7.276;2023-03-15T12:30:00;2.63;;;1.30;;
28335;SDS011;15592;53.656;7.276;2023-03-15T12:32:28;2.35;;;1.05;;
28335;SDS011;15592;53.656;7.276;2023-03-15T12:34:55;3.95;;;1.33;;
28335;SDS011;15592;53.656;7.276;2023-03-15T12:37:23;2.95;;;1.30;;
28335;SDS011;15592;53.656;7.276;2023-03-15T12:48:12;7.85;;;1.83;;
28335;SDS011;15592;53.656;7.276;2023-03-15T12:53:18;4.20;;;1.65;;
28335;SDS011;15592;53.656;7.276;2023-03-15T12:55:46;5.18;;;1.60;;
28335;SDS011;15592;53.656;7.276;2023-03-15T12:58:14;4.03;;;1.45;;
28335;SDS011;15592;53.656;7.276;2023-03-15T13:00:42;12.98;;;2.20;;
28335;SDS011;15592;53.656;7.276;2023-03-15T13:03:11;8.13;;;1.80;;
28335;SDS011;15592;53.656;7.276;2023-03-15T13:08:22;6.65;;;2.20;;
28335;SDS011;15592;53.656;7.276;2023-03-15T13:18:30;7.03;;;1.85;;
28335;SDS011;15592;53.656;7.276;2023-03-15T13:23:42;7.80;;;1.65;;
28335;SDS011;15592;53.656;7.276;2023-03-15T13:26:20;10.25;;;2.20;;
28335;SDS011;15592;53.656;7.276;2023-03-15T13:28:49;10.27;;;2.17;;
28335;SDS011;15592;53.656;7.276;2023-03-15T13:31:41;7.65;;;1.95;;
28335;SDS011;15592;53.656;7.276;2023-03-15T13:39:18;9.13;;;1.60;;
28335;SDS011;15592;53.656;7.276;2023-03-15T13:41:59;6.53;;;1.85;;
28335;SDS011;15592;53.656;7.276;2023-03-15T13:44:28;5.32;;;1.73;;
28335;SDS011;15592;53.656;7.276;2023-03-15T13:46:54;9.00;;;1.90;;
28335;SDS011;15592;53.656;7.276;2023-03-15T13:49:21;9.13;;;1.83;;
28335;SDS011;15592;53.656;7.276;2023-03-15T13:51:47;8.27;;;1.67;;
28335;SDS011;15592;53.656;7.276;2023-03-15T13:54:19;9.43;;;2.00;;
28335;SDS011;15592;53.656;7.276;2023-03-15T13:59:22;6.88;;;1.98;;
28335;SDS011;15592;53.656;7.276;2023-03-15T14:01:54;8.68;;;2.13;;
28335;SDS011;15592;53.656;7.276;2023-03-15T14:04:20;9.93;;;2.10;;
28335;SDS011;15592;53.656;7.276;2023-03-15T14:06:47;11.88;;;2.35;;
28335;SDS011;15592;53.656;7.276;2023-03-15T14:09:19;14.63;;;2.42;;
28335;SDS011;15592;53.656;7.276;2023-03-15T14:14:51;8.27;;;1.95;;
28335;SDS011;15592;53.656;7.276;2023-03-15T14:17:25;7.43;;;2.05;;
28335;SDS011;15592;53.656;7.276;2023-03-15T14:19:54;8.57;;;1.92;;
28335;SDS011;15592;53.656;7.276;2023-03-15T14:22:40;4.93;;;1.23;;
28335;SDS011;15592;53.656;7.276;2023-03-15T14:25:21;6.53;;;1.85;;
28335;SDS011;15592;53.656;7.276;2023-03-15T14:27:48;6.50;;;1.73;;
28335;SDS011;15592;53.656;7.276;2023-03-15T14:30:21;8.35;;;1.52;;
28335;SDS011;15592;53.656;7.276;2023-03-15T14:32:50;4.88;;;1.33;;
28335;SDS011;15592;53.656;7.276;2023-03-15T14:35:23;4.55;;;1.33;;
28335;SDS011;15592;53.656;7.276;2023-03-15T14:40:32;3.85;;;1.33;;
28335;SDS011;15592;53.656;7.276;2023-03-15T14:43:00;3.35;;;0.85;;
28335;SDS011;15592;53.656;7.276;2023-03-15T14:45:27;4.00;;;1.38;;
28335;SDS011;15592;53.656;7.276;2023-03-15T14:47:59;3.17;;;1.02;;
28335;SDS011;15592;53.656;7.276;2023-03-15T14:50:27;3.40;;;1.20;;
28335;SDS011;15592;53.656;7.276;2023-03-15T14:52:55;4.13;;;1.10;;
28335;SDS011;15592;53.656;7.276;2023-03-15T14:55:22;5.72;;;1.30;;
28335;SDS011;15592;53.656;7.276;2023-03-15T14:57:52;3.65;;;1.10;;
28335;SDS011;15592;53.656;7.276;2023-03-15T15:00:18;3.08;;;1.08;;
28335;SDS011;15592;53.656;7.276;2023-03-15T15:02:45;12.35;;;2.28;;
28335;SDS011;15592;53.656;7.276;2023-03-15T15:05:21;8.30;;;1.30;;
28335;SDS011;15592;53.656;7.276;2023-03-15T15:07:48;4.25;;;1.55;;
28335;SDS011;15592;53.656;7.276;2023-03-15T15:10:18;3.75;;;1.25;;
28335;SDS011;15592;53.656;7.276;2023-03-15T15:12:45;3.15;;;1.20;;
28335;SDS011;15592;53.656;7.276;2023-03-15T15:15:19;2.92;;;1.20;;
28335;SDS011;15592;53.656;7.276;2023-03-15T15:17:45;2.58;;;1.20;;
28335;SDS011;15592;53.656;7.276;2023-03-15T15:20:12;3.10;;;1.02;;
28335;SDS011;15592;53.656;7.276;2023-03-15T15:22:39;3.55;;;1.00;;
28335;SDS011;15592;53.656;7.276;2023-03-15T15:25:15;4.15;;;1.35;;
28335;SDS011;15592;53.656;7.276;2023-03-15T15:27:43;2.75;;;0.93;;
28335;SDS011;15592;53.656;7.276;2023-03-15T15:30:10;3.08;;;1.00;;
28335;SDS011;15592;53.656;7.276;2023-03-15T15:32:38;3.60;;;1.02;;
28335;SDS011;15592;53.656;7.276;2023-03-15T15:35:04;2.10;;;0.90;;
28335;SDS011;15592;53.656;7.276;2023-03-15T15:37:32;2.65;;;1.00;;
28335;SDS011;15592;53.656;7.276;2023-03-15T15:39:58;3.13;;;0.98;;
28335;SDS011;15592;53.656;7.276;2023-03-15T15:42:24;1.98;;;0.90;;
28335;SDS011;15592;53.656;7.276;2023-03-15T15:44:50;2.40;;;0.80;;
28335;SDS011;15592;53.656;7.276;2023-03-15T15:47:15;2.10;;;0.90;;
28335;SDS011;15592;53.656;7.276;2023-03-15T15:49:41;1.67;;;0.90;;
28335;SDS011;15592;53.656;7.276;2023-03-15T15:52:12;2.45;;;1.00;;
28335;SDS011;15592;53.656;7.276;2023-03-15T15:54:38;4.82;;;1.17;;
28335;SDS011;15592;53.656;7.276;2023-03-15T15:57:04;1.77;;;0.85;;
28335;SDS011;15592;53.656;7.276;2023-03-15T15:59:30;1.42;;;0.93;;
28335;SDS011;15592;53.656;7.276;2023-03-15T16:01:56;3.10;;;0.95;;
28335;SDS011;15592;53.656;7.276;2023-03-15T16:04:22;2.72;;;0.80;;
28335;SDS011;15592;53.656;7.276;2023-03-15T16:06:53;2.47;;;0.80;;
28335;SDS011;15592;53.656;7.276;2023-03-15T16:09:20;2.30;;;1.10;;
28335;SDS011;15592;53.656;7.276;2023-03-15T16:11:47;2.08;;;0.85;;
28335;SDS011;15592;53.656;7.276;2023-03-15T16:14:13;3.63;;;0.90;;
28335;SDS011;15592;53.656;7.276;2023-03-15T16:16:40;1.40;;;0.70;;
28335;SDS011;15592;53.656;7.276;2023-03-15T16:19:06;1.85;;;0.80;;
28335;SDS011;15592;53.656;7.276;2023-03-15T16:27:28;2.70;;;0.60;;